Time;durP1;ratioP1;P1;durP2;ratioP2;P2;SDS_P1;SDS_P2;PMS_P1;PMS_P2;Temp;Humidity;BMP_temperature;BMP_pressure;BME280_temperature;BME280_humidity;BME280_pressure;Samples;Min_cycle;Max_cycle;Signal;HPM_P1;HPM_P2
2022/04/08 00:01:00;;;;;;;24.60;7.70;;;;;;;-2.20;100.00;99626.47;5064387;28;20032;-76
2022/04/08 00:03:26;;;;;;;14.65;5.72;;;;;;;-2.28;100.00;99624.47;5044263;28;20486;-76
2022/04/08 00:05:58;;;;;;;15.88;5.47;;;;;;;-2.28;100.00;99623.63;5032386;28;20045;-76
2022/04/08 00:08:26;;;;;;;14.32;6.07;;;;;;;-2.06;100.00;99623.59;5046053;28;20059;-75
2022/04/08 00:10:52;;;;;;;15.27;6.63;;;;;;;-2.05;100.00;99627.91;5043157;28;20040;-77
2022/04/08 00:13:18;;;;;;;8.98;4.60;;;;;;;-2.35;100.00;99612.75;5064279;28;20095;-76
2022/04/08 00:15:43;;;;;;;18.73;5.13;;;;;;;-2.32;100.00;99635.38;5047952;28;20036;-77
2022/04/08 00:18:09;;;;;;;10.02;3.58;;;;;;;-2.40;100.00;99641.25;5045529;28;20041;-75
2022/04/08 00:20:35;;;;;;;8.70;4.15;;;;;;;-2.44;100.00;99624.84;5056518;28;20544;-75
2022/04/08 00:23:03;;;;;;;6.57;3.03;;;;;;;-2.43;100.00;99633.59;5060104;28;20056;-76
2022/04/08 00:25:29;;;;;;;16.73;4.38;;;;;;;-2.37;100.00;99643.63;5066775;28;20051;-75
2022/04/08 00:27:55;;;;;;;4.32;2.38;;;;;;;-2.31;100.00;99637.88;5048390;28;20041;-75
2022/04/08 00:30:20;;;;;;;6.65;2.85;;;;;;;-2.33;100.00;99628.41;5051429;28;20532;-76
2022/04/08 00:32:46;;;;;;;6.80;3.20;;;;;;;-2.52;100.00;99618.50;5064535;28;20056;-75
2022/04/08 00:35:12;;;;;;;10.15;3.35;;;;;;;-2.62;100.00;99635.97;5051473;28;20036;-75
2022/04/08 00:37:39;;;;;;;7.55;2.92;;;;;;;-2.75;100.00;99629.03;5026725;28;20082;-76
2022/04/08 00:40:06;;;;;;;8.18;2.45;;;;;;;-2.69;100.00;99636.44;5047236;28;20040;-76
2022/04/08 00:42:32;;;;;;;3.70;3.00;;;;;;;-2.63;100.00;99639.56;5058920;28;20155;-75
2022/04/08 00:44:57;;;;;;;4.10;2.03;;;;;;;-2.59;100.00;99639.22;5067307;28;20032;-76
2022/04/08 00:47:23;;;;;;;8.25;2.55;;;;;;;-2.62;100.00;99628.94;5057466;28;20847;-78
2022/04/08 00:49:49;;;;;;;11.50;2.72;;;;;;;-2.58;100.00;99642.69;5063662;28;20033;-76
2022/04/08 00:52:15;;;;;;;5.18;2.30;;;;;;;-2.66;100.00;99652.00;5029123;28;20044;-76
2022/04/08 00:54:43;;;;;;;4.13;1.95;;;;;;;-2.67;100.00;99650.34;5050790;28;20036;-76
2022/04/08 00:57:08;;;;;;;8.80;2.17;;;;;;;-2.66;100.00;99657.25;5051384;28;20105;-76
2022/04/08 00:59:34;;;;;;;6.45;2.47;;;;;;;-2.66;100.00;99659.88;5043579;28;20467;-75
2022/04/08 01:02:00;;;;;;;9.95;3.47;;;;;;;-2.78;100.00;99657.34;5036376;28;20127;-75
2022/04/08 01:04:27;;;;;;;12.25;2.63;;;;;;;-2.93;100.00;99646.22;5032133;28;20036;-77
2022/04/08 01:06:54;;;;;;;7.45;3.55;;;;;;;-2.95;100.00;99650.78;5065342;28;20540;-76
2022/04/08 01:09:21;;;;;;;7.22;2.53;;;;;;;-2.97;100.00;99642.97;5069442;28;20036;-75
2022/04/08 01:11:47;;;;;;;8.75;2.95;;;;;;;-2.88;100.00;99644.94;5052766;28;20079;-76
2022/04/08 01:14:14;;;;;;;8.57;2.53;;;;;;;-2.82;100.00;99637.53;5050135;28;20486;-75
2022/04/08 01:16:40;;;;;;;9.20;3.20;;;;;;;-2.82;100.00;99640.16;5053674;28;20035;-77
2022/04/08 01:19:07;;;;;;;6.35;2.60;;;;;;;-2.95;100.00;99627.09;5059413;28;20040;-78
2022/04/08 01:21:33;;;;;;;6.35;2.92;;;;;;;-3.00;100.00;99637.97;5050464;28;20359;-78
2022/04/08 01:24:00;;;;;;;15.48;4.15;;;;;;;-3.02;100.00;99642.50;5052480;28;20089;-75
2022/04/08 01:26:26;;;;;;;13.82;4.03;;;;;;;-2.96;100.00;99630.69;5039834;28;20154;-76
2022/04/08 01:28:53;;;;;;;55.17;13.60;;;;;;;-2.90;100.00;99636.31;5073493;28;20047;-76
2022/04/08 01:31:18;;;;;;;47.05;13.77;;;;;;;-3.04;100.00;99626.00;5041078;28;22793;-75
2022/04/08 01:33:44;;;;;;;40.10;11.35;;;;;;;-3.16;100.00;99626.94;5076891;28;20023;-76
2022/04/08 01:36:10;;;;;;;34.53;10.00;;;;;;;-3.16;100.00;99627.75;5041794;28;20052;-77
2022/04/08 01:38:36;;;;;;;48.22;12.40;;;;;;;-3.28;100.00;99612.94;5059910;28;20029;-75
2022/04/08 01:41:02;;;;;;;31.38;10.38;;;;;;;-3.25;100.00;99612.69;5066443;28;20115;-76
2022/04/08 01:43:28;;;;;;;19.90;7.53;;;;;;;-3.07;100.00;99622.75;5067131;28;20384;-75
2022/04/08 01:45:53;;;;;;;31.40;9.40;;;;;;;-2.99;100.00;99620.38;5064924;28;20779;-77
2022/04/08 01:48:19;;;;;;;20.90;7.15;;;;;;;-2.98;100.00;99619.44;5049831;28;20028;-76
2022/04/08 01:50:45;;;;;;;17.63;4.80;;;;;;;-3.02;100.00;99621.44;5065845;28;20588;-75
2022/04/08 01:53:11;;;;;;;25.83;7.05;;;;;;;-3.07;100.00;99628.03;5052454;28;20371;-77
2022/04/08 01:55:36;;;;;;;15.98;4.65;;;;;;;-3.14;100.00;99628.50;5067911;28;20371;-76
2022/04/08 01:58:05;;;;;;;4.70;2.67;;;;;;;-3.22;100.00;99622.16;5035163;28;20363;-75
2022/04/08 02:26:16;;;;;;;5.57;2.03;;;;;;;-3.26;100.00;99605.75;5057946;28;20072;-75
2022/04/08 02:28:46;;;;;;;5.07;2.20;;;;;;;-3.14;100.00;99617.16;5030148;28;20032;-76
2022/04/08 02:31:12;;;;;;;13.50;2.63;;;;;;;-2.54;100.00;99615.16;5067543;28;20024;-76
2022/04/08 02:33:38;;;;;;;12.23;2.58;;;;;;;-2.03;100.00;99622.53;5064101;28;20056;-76
2022/04/08 02:36:05;;;;;;;4.30;2.25;;;;;;;-2.12;100.00;99617.97;5031184;28;20044;-76
2022/04/08 02:38:33;;;;;;;8.82;2.45;;;;;;;-2.36;100.00;99621.59;5069241;28;20482;-76
2022/04/08 02:40:59;;;;;;;5.55;2.40;;;;;;;-2.68;100.00;99617.06;5047577;28;20048;-77
2022/04/08 02:43:24;;;;;;;5.35;1.98;;;;;;;-2.96;100.00;99623.63;5045516;28;20041;-75
2022/04/08 02:45:50;;;;;;;3.90;2.15;;;;;;;-3.15;100.00;99618.94;5025509;28;20068;-76
2022/04/08 02:48:16;;;;;;;4.45;1.42;;;;;;;-3.26;100.00;99618.91;5063995;28;20113;-76
2022/04/08 02:50:42;;;;;;;3.53;1.70;;;;;;;-3.28;100.00;99617.34;5064688;28;20478;-75
2022/04/08 02:53:07;;;;;;;3.47;1.55;;;;;;;-3.44;100.00;99608.00;5034332;28;20067;-76
2022/04/08 02:55:35;;;;;;;7.47;2.03;;;;;;;-3.53;100.00;99595.53;5057341;28;20020;-77
2022/04/08 02:58:01;;;;;;;6.25;1.90;;;;;;;-3.47;100.00;99612.63;5083906;28;20033;-77
2022/04/08 03:00:27;;;;;;;3.97;1.83;;;;;;;-3.59;100.00;99601.25;5081081;28;20040;-76
2022/04/08 03:02:53;;;;;;;4.32;1.40;;;;;;;-3.59;100.00;99611.75;5029841;28;20090;-76
2022/04/08 03:05:18;;;;;;;3.28;1.95;;;;;;;-3.58;100.00;99606.38;5062219;28;20036;-79
2022/04/08 03:07:44;;;;;;;7.80;2.67;;;;;;;-3.84;100.00;99573.31;5067487;28;20529;-76
2022/04/08 03:10:10;;;;;;;3.65;2.22;;;;;;;-3.72;100.00;99596.06;5066923;28;20123;-77
2022/04/08 03:12:36;;;;;;;10.23;1.92;;;;;;;-3.76;100.00;99592.84;5061081;28;20424;-75
2022/04/08 03:15:02;;;;;;;5.47;1.77;;;;;;;-3.64;100.00;99598.97;5030737;28;20029;-78
2022/04/08 03:17:28;;;;;;;8.02;3.35;;;;;;;-3.56;100.00;99588.72;5067660;28;20029;-78
2022/04/08 03:19:54;;;;;;;7.93;3.72;;;;;;;-3.48;100.00;99588.13;5046045;28;20105;-76
2022/04/08 03:22:20;;;;;;;7.55;3.42;;;;;;;-3.50;100.00;99595.28;5072415;28;20086;-77
2022/04/08 03:24:50;;;;;;;7.20;3.13;;;;;;;-3.60;100.00;99591.69;5067418;28;20039;-76
2022/04/08 03:27:16;;;;;;;8.32;4.32;;;;;;;-3.66;100.00;99595.59;5058845;28;20030;-76
2022/04/08 03:29:42;;;;;;;9.93;3.63;;;;;;;-3.71;100.00;99597.72;5057696;28;20037;-76
2022/04/08 03:32:08;;;;;;;5.30;2.25;;;;;;;-3.80;100.00;99595.78;5065261;28;20401;-78
2022/04/08 03:34:34;;;;;;;6.38;3.00;;;;;;;-3.79;100.00;99589.56;5049056;28;20082;-75
2022/04/08 03:37:00;;;;;;;6.07;3.22;;;;;;;-3.90;100.00;99585.13;5059815;28;20037;-75
2022/04/08 03:39:25;;;;;;;9.65;3.88;;;;;;;-3.79;100.00;99587.78;5064441;28;20486;-75
2022/04/08 03:41:51;;;;;;;7.45;3.97;;;;;;;-3.80;100.00;99596.63;5045556;28;20132;-75
2022/04/08 03:44:17;;;;;;;13.32;3.53;;;;;;;-3.85;100.00;99587.41;5066399;28;20033;-77
2022/04/08 03:46:44;;;;;;;8.45;3.85;;;;;;;-3.91;100.00;99588.69;5044498;28;20044;-76
2022/04/08 03:49:16;;;;;;;11.63;4.60;;;;;;;-3.92;100.00;99591.44;5064699;28;20056;-75
2022/04/08 03:51:42;;;;;;;9.60;5.28;;;;;;;-3.89;100.00;99597.31;5061695;28;20163;-78
2022/04/08 03:54:08;;;;;;;11.32;5.80;;;;;;;-3.93;100.00;99584.50;5080985;28;20413;-77
2022/04/08 03:56:35;;;;;;;11.65;4.88;;;;;;;-3.93;100.00;99600.28;5062086;28;20024;-78
2022/04/08 03:59:00;;;;;;;7.85;4.10;;;;;;;-3.94;100.00;99598.56;5062317;28;20039;-78
2022/04/08 04:01:26;;;;;;;12.20;4.45;;;;;;;-3.94;100.00;99594.19;5052471;28;20033;-76
2022/04/08 04:03:52;;;;;;;11.77;4.03;;;;;;;-3.88;100.00;99598.16;5042499;28;20482;-75
2022/04/08 04:06:18;;;;;;;9.10;4.13;;;;;;;-3.86;100.00;99599.72;5028637;28;20041;-76
2022/04/08 04:08:44;;;;;;;3.90;3.17;;;;;;;-3.83;100.00;99594.22;5035669;28;20075;-76
2022/04/08 04:11:20;;;;;;;7.47;3.17;;;;;;;-3.76;100.00;99602.47;5056188;28;20044;-75
2022/04/08 04:13:46;;;;;;;6.38;2.70;;;;;;;-3.90;100.00;99600.03;5039210;28;20040;-76
2022/04/08 04:16:12;;;;;;;6.05;2.97;;;;;;;-3.92;100.00;99607.19;5052138;28;20082;-75
2022/04/08 04:18:38;;;;;;;5.57;3.13;;;;;;;-4.06;100.00;99609.03;5070443;28;20408;-77
2022/04/08 04:21:04;;;;;;;7.50;3.17;;;;;;;-4.16;100.00;99608.00;5072720;28;20501;-77
2022/04/08 04:23:31;;;;;;;4.65;2.58;;;;;;;-4.34;100.00;99569.97;5068445;28;20127;-76
2022/04/08 04:25:57;;;;;;;4.65;3.22;;;;;;;-4.07;100.00;99598.66;5062603;28;20033;-77
2022/04/08 04:28:23;;;;;;;8.23;2.75;;;;;;;-4.10;100.00;99604.97;5061988;28;20043;-77
2022/04/08 04:30:49;;;;;;;10.00;2.40;;;;;;;-4.07;100.00;99604.72;5072279;28;20025;-76
2022/04/08 04:33:18;;;;;;;6.47;2.70;;;;;;;-4.06;100.00;99606.41;5048506;28;20036;-77
2022/04/08 04:35:46;;;;;;;6.93;2.58;;;;;;;-4.06;100.00;99609.03;5049010;28;20032;-77
2022/04/08 04:38:12;;;;;;;7.18;2.28;;;;;;;-4.23;100.00;99585.78;5046403;28;20028;-78
2022/04/08 04:40:38;;;;;;;7.88;2.28;;;;;;;-4.02;100.00;99607.88;5063980;28;20047;-77
2022/04/08 04:43:08;;;;;;;5.55;2.72;;;;;;;-3.99;100.00;99609.44;5066096;28;20112;-77
2022/04/08 04:45:37;;;;;;;5.47;1.80;;;;;;;-3.94;100.00;99614.31;5045803;28;20398;-79
2022/04/08 04:48:04;;;;;;;4.18;2.30;;;;;;;-3.83;100.00;99612.63;5067365;28;20377;-76
2022/04/08 04:50:29;;;;;;;3.17;2.10;;;;;;;-3.81;100.00;99618.59;5062598;28;20054;-77
2022/04/08 04:52:55;;;;;;;6.63;2.40;;;;;;;-3.87;100.00;99605.06;5037094;28;20389;-77
2022/04/08 04:55:20;;;;;;;4.30;2.45;;;;;;;-3.91;100.00;99609.72;5080438;28;20075;-77
2022/04/08 04:57:46;;;;;;;4.13;2.80;;;;;;;-3.95;100.00;99620.53;5084347;28;20042;-75
2022/04/08 05:00:13;;;;;;;3.47;1.80;;;;;;;-4.02;100.00;99617.53;5037503;28;20077;-78
2022/04/08 05:02:38;;;;;;;3.40;1.65;;;;;;;-4.08;100.00;99610.91;5045800;28;20036;-76
2022/04/08 05:05:06;;;;;;;5.57;2.53;;;;;;;-3.89;100.00;99622.72;5064274;28;20086;-76
2022/04/08 05:07:32;;;;;;;3.28;1.40;;;;;;;-3.88;100.00;99620.00;5046906;28;20127;-76
2022/04/08 05:09:57;;;;;;;2.47;1.45;;;;;;;-3.95;100.00;99607.41;5035427;28;20131;-76
2022/04/08 05:12:23;;;;;;;2.70;1.52;;;;;;;-3.66;100.00;99624.50;5047535;28;20383;-76
2022/04/08 05:14:49;;;;;;;1.30;0.95;;;;;;;-3.32;100.00;99622.00;5036516;28;20056;-76
2022/04/08 05:17:14;;;;;;;1.05;0.82;;;;;;;-2.74;100.00;99632.50;5050125;28;20028;-75
2022/04/08 05:19:40;;;;;;;4.05;1.65;;;;;;;-2.21;100.00;99619.56;5065952;28;20496;-76
2022/04/08 05:22:05;;;;;;;2.53;1.38;;;;;;;-1.85;100.00;99636.84;5031014;28;20032;-76
2022/04/08 05:24:31;;;;;;;3.17;1.02;;;;;;;-1.59;100.00;99633.88;5065309;28;20420;-77
2022/04/08 05:26:57;;;;;;;5.32;1.25;;;;;;;-1.36;100.00;99639.91;5048566;28;20040;-76
2022/04/08 05:29:24;;;;;;;2.22;0.90;;;;;;;-1.23;100.00;99647.63;5048195;28;20039;-77
2022/04/08 05:31:49;;;;;;;5.53;1.92;;;;;;;-1.18;100.00;99646.28;5053222;28;20047;-77
2022/04/08 05:34:15;;;;;;;5.55;1.90;;;;;;;-1.05;100.00;99654.00;5069981;28;20032;-75
2022/04/08 05:36:41;;;;;;;1.42;0.80;;;;;;;-1.05;100.00;99648.72;5035541;28;20036;-75
2022/04/08 05:39:06;;;;;;;6.15;1.42;;;;;;;-0.88;100.00;99657.84;5068907;28;20040;-78
2022/04/08 05:41:32;;;;;;;4.68;1.75;;;;;;;-0.76;100.00;99661.28;5053684;28;20040;-77
2022/04/08 05:43:58;;;;;;;1.67;1.05;;;;;;;-0.53;100.00;99662.78;5036314;28;20036;-76
2022/04/08 05:46:26;;;;;;;3.05;1.08;;;;;;;-0.56;100.00;99660.38;5063422;28;20535;-76
2022/04/08 05:48:51;;;;;;;4.75;1.90;;;;;;;-0.57;100.00;99661.38;5050765;28;20040;-77
2022/04/08 05:51:17;;;;;;;6.22;1.90;;;;;;;-0.55;100.00;99672.63;5053506;28;20256;-77
2022/04/08 05:53:45;;;;;;;1.92;1.27;;;;;;;-0.59;100.00;99670.38;5035658;28;20035;-76
2022/04/08 05:56:10;;;;;;;4.43;0.98;;;;;;;-0.63;100.00;99672.47;5036438;28;20044;-77
2022/04/08 05:58:36;;;;;;;2.80;1.25;;;;;;;-0.65;100.00;99676.19;5034341;28;20086;-75
2022/04/08 06:01:02;;;;;;;3.28;1.10;;;;;;;-0.67;100.00;99666.59;5049521;28;20037;-76
2022/04/08 06:03:28;;;;;;;2.90;1.23;;;;;;;-0.73;100.00;99663.66;5060545;28;20025;-76
2022/04/08 06:05:54;;;;;;;5.68;1.52;;;;;;;-0.69;100.00;99679.09;5053535;28;20119;-76
2022/04/08 06:08:20;;;;;;;2.75;1.10;;;;;;;-0.63;100.00;99672.47;5033010;28;20413;-76
2022/04/08 06:10:49;;;;;;;3.90;1.33;;;;;;;-0.53;100.00;99673.34;5070418;28;20042;-76
2022/04/08 06:13:15;;;;;;;5.47;1.95;;;;;;;-0.43;100.00;99676.03;5033047;28;20124;-76
2022/04/08 06:15:40;;;;;;;2.20;1.60;;;;;;;-0.33;100.00;99686.63;5036623;28;20064;-76
2022/04/08 06:18:08;;;;;;;6.93;2.20;;;;;;;-0.24;100.00;99683.19;5037374;28;20465;-76
2022/04/08 06:20:33;;;;;;;6.53;1.65;;;;;;;0.17;100.00;99686.69;5035765;28;20212;-77
2022/04/08 06:22:59;;;;;;;3.22;1.30;;;;;;;0.56;100.00;99689.41;5043244;28;20509;-79
2022/04/08 06:25:25;;;;;;;4.70;1.73;;;;;;;0.89;100.00;99685.50;5042560;28;20071;-77
2022/04/08 06:27:58;;;;;;;13.68;1.70;;;;;;;0.91;100.00;99683.53;5060987;28;20043;-77
2022/04/08 06:30:24;;;;;;;5.13;1.48;;;;;;;1.04;100.00;99692.03;5058710;28;20032;-78
2022/04/08 06:32:50;;;;;;;3.10;1.45;;;;;;;1.31;100.00;99696.59;5039645;28;20036;-77
2022/04/08 06:35:16;;;;;;;7.82;2.03;;;;;;;1.43;100.00;99689.31;5064295;28;20043;-77
2022/04/08 06:37:41;;;;;;;6.35;2.75;;;;;;;1.42;100.00;99705.34;5056378;28;20513;-76
2022/04/08 06:40:08;;;;;;;2.17;1.15;;;;;;;1.32;100.00;99702.72;5057799;28;20523;-77
2022/04/08 06:42:35;;;;;;;0.52;0.52;;;;;;;1.43;100.00;99707.88;5054599;28;20121;-77
2022/04/08 06:45:01;;;;;;;2.35;1.27;;;;;;;1.55;100.00;99713.81;5027963;28;20035;-77
2022/04/08 06:47:27;;;;;;;3.80;1.42;;;;;;;1.57;100.00;99719.00;5064917;28;20032;-78
2022/04/08 06:49:53;;;;;;;6.03;2.58;;;;;;;1.78;100.00;99732.03;5065716;28;20055;-76
2022/04/08 06:52:18;;;;;;;1.70;0.75;;;;;;;1.77;100.00;99704.69;5061008;28;20068;-77
2022/04/08 06:54:44;;;;;;;0.98;0.82;;;;;;;2.07;100.00;99732.75;5051325;28;20036;-76
2022/04/08 06:57:09;;;;;;;5.93;1.95;;;;;;;1.87;100.00;99742.59;5029409;28;20036;-77
2022/04/08 06:59:35;;;;;;;4.20;1.40;;;;;;;1.94;100.00;99742.88;5063530;28;20409;-77
2022/04/08 07:02:02;;;;;;;6.57;1.48;;;;;;;2.41;100.00;99748.09;5031125;28;20041;-77
2022/04/08 07:04:27;;;;;;;7.70;1.63;;;;;;;3.26;100.00;99759.22;5061891;28;20048;-77
2022/04/08 07:06:54;;;;;;;3.90;1.23;;;;;;;3.57;100.00;99759.63;5026806;28;20071;-76
2022/04/08 07:09:20;;;;;;;7.30;1.98;;;;;;;3.85;100.00;99760.31;5045485;28;20575;-79
2022/04/08 07:11:49;;;;;;;2.33;1.33;;;;;;;4.27;99.71;99767.53;5061619;28;20032;-77
2022/04/08 07:14:14;;;;;;;6.35;2.00;;;;;;;4.50;98.80;99766.94;5035837;28;20147;-77
2022/04/08 07:16:43;;;;;;;1.48;1.35;;;;;;;5.23;96.75;99772.44;5034102;28;20432;-77
2022/04/08 07:19:11;;;;;;;2.30;1.15;;;;;;;6.35;92.43;99780.63;5043833;28;20402;-77
2022/04/08 07:21:37;;;;;;;2.17;1.55;;;;;;;7.10;89.74;99777.44;5055001;28;20111;-77
2022/04/08 07:24:03;;;;;;;2.53;1.17;;;;;;;7.66;87.59;99783.34;5048688;28;20111;-77
2022/04/08 07:26:28;;;;;;;7.45;1.58;;;;;;;7.90;86.13;99776.94;5063087;28;20035;-77
2022/04/08 07:28:55;;;;;;;4.00;1.70;;;;;;;8.35;83.22;99790.34;5072249;28;20377;-78
2022/04/08 07:31:21;;;;;;;2.63;1.42;;;;;;;8.80;82.93;99800.03;5060679;28;20024;-78
2022/04/08 07:33:47;;;;;;;3.47;1.75;;;;;;;8.48;81.37;99797.78;5046144;28;20104;-77
2022/04/08 07:36:13;;;;;;;4.53;1.40;;;;;;;8.62;82.41;99806.81;5057954;28;20115;-76
2022/04/08 07:38:39;;;;;;;0.93;0.93;;;;;;;9.35;79.94;99804.97;5044297;28;20471;-78
2022/04/08 07:41:04;;;;;;;2.42;1.25;;;;;;;9.90;79.67;99811.47;5064877;28;20025;-80
2022/04/08 07:43:30;;;;;;;1.10;1.00;;;;;;;10.32;77.97;99807.03;5042733;28;20041;-77
2022/04/08 07:45:56;;;;;;;2.40;1.38;;;;;;;10.71;77.56;99822.50;5041552;28;20040;-76
2022/04/08 07:48:21;;;;;;;3.58;2.17;;;;;;;11.25;75.66;99810.09;5043659;28;20488;-78
2022/04/08 07:50:47;;;;;;;3.55;1.73;;;;;;;12.02;75.13;99819.53;5032903;28;20043;-78
2022/04/08 07:53:15;;;;;;;2.55;1.55;;;;;;;12.27;72.22;99827.78;5035128;28;20135;-80
2022/04/08 07:55:41;;;;;;;3.78;1.48;;;;;;;12.46;67.06;99828.81;5057245;28;20033;-80
2022/04/08 07:58:06;;;;;;;2.10;1.10;;;;;;;12.49;69.21;99830.22;5057092;28;20046;-77
2022/04/08 08:00:32;;;;;;;2.55;1.55;;;;;;;12.49;68.71;99828.38;5047604;28;20426;-78
2022/04/08 08:02:58;;;;;;;3.50;1.58;;;;;;;12.69;62.33;99841.78;5035145;28;20036;-77
2022/04/08 08:05:25;;;;;;;3.47;1.38;;;;;;;10.76;70.63;99843.44;5054295;28;20037;-77
2022/04/08 08:07:52;;;;;;;5.10;2.25;;;;;;;8.59;76.46;99845.53;5059894;28;20021;-77
2022/04/08 08:10:22;;;;;;;3.33;1.33;;;;;;;7.27;84.48;99858.34;5062102;28;20116;-77
2022/04/08 08:12:49;;;;;;;3.50;1.40;;;;;;;6.52;84.64;99838.34;5056995;28;20051;-78
2022/04/08 08:15:15;;;;;;;3.70;1.20;;;;;;;5.94;90.88;99858.97;5057759;28;20033;-80
2022/04/08 08:17:41;;;;;;;2.28;1.10;;;;;;;5.54;95.80;99866.94;5045389;28;20037;-76
2022/04/08 08:20:09;;;;;;;2.45;1.38;;;;;;;5.80;96.16;99858.78;5045997;28;20095;-77
2022/04/08 08:22:35;;;;;;;2.05;1.10;;;;;;;5.58;94.72;99868.25;5078728;28;20036;-78
2022/04/08 08:25:01;;;;;;;2.15;1.25;;;;;;;5.74;89.82;99860.25;5056962;28;20032;-78
2022/04/08 08:27:27;;;;;;;2.80;1.50;;;;;;;7.11;82.93;99866.47;5034200;28;20119;-77
2022/04/08 08:29:53;;;;;;;3.58;1.58;;;;;;;7.91;82.87;99877.66;5043600;28;20140;-78
2022/04/08 08:32:21;;;;;;;3.65;1.30;;;;;;;6.98;89.56;99878.56;5029382;28;20563;-76
2022/04/08 08:34:47;;;;;;;2.50;0.70;;;;;;;6.49;95.79;99875.25;5051215;28;20239;-77
2022/04/08 08:37:15;;;;;;;2.70;1.20;;;;;;;6.32;91.22;99875.25;5051217;28;20481;-77
2022/04/08 08:39:40;;;;;;;1.33;1.10;;;;;;;5.99;93.87;99879.81;5032675;28;21729;-76
2022/04/08 08:42:08;;;;;;;2.85;1.35;;;;;;;5.84;99.04;99884.13;5034536;28;20068;-77
2022/04/08 08:44:34;;;;;;;4.32;1.30;;;;;;;5.80;98.98;99891.63;5033738;28;20052;-79
2022/04/08 08:47:07;;;;;;;3.15;1.00;;;;;;;5.87;96.23;99889.94;5047114;28;20101;-77
2022/04/08 08:49:35;;;;;;;4.53;1.90;;;;;;;5.99;99.70;99895.00;5058596;28;20041;-77
2022/04/08 08:52:02;;;;;;;10.38;2.35;;;;;;;6.34;99.05;99889.28;5069219;28;20181;-76
2022/04/08 08:54:31;;;;;;;4.10;1.98;;;;;;;6.80;93.89;99900.19;5063267;28;20029;-77
2022/04/08 08:57:03;;;;;;;5.85;1.15;;;;;;;7.11;88.66;99912.75;5074116;28;20056;-76
2022/04/08 08:59:29;;;;;;;3.15;1.80;;;;;;;7.42;91.87;99907.41;5051694;28;20469;-79
2022/04/08 09:02:02;;;;;;;6.22;2.15;;;;;;;8.20;81.24;99904.66;5039000;28;20097;-79
2022/04/08 09:04:29;;;;;;;8.40;3.20;;;;;;;9.52;78.79;99913.69;5072365;28;20454;-79
2022/04/08 09:06:55;;;;;;;1.38;0.95;;;;;;;11.37;71.50;99926.88;5051921;28;20028;-79
2022/04/08 09:09:30;;;;;;;2.50;0.90;;;;;;;10.72;70.91;99928.22;5055026;28;20032;-78
2022/04/08 09:12:12;;;;;;;2.35;1.17;;;;;;;10.28;76.24;99921.28;5054699;28;20071;-79
2022/04/08 09:14:38;;;;;;;3.45;1.67;;;;;;;11.60;70.79;99925.72;5036758;28;20033;-79
2022/04/08 09:17:04;;;;;;;4.28;1.40;;;;;;;12.37;67.08;99902.00;5054266;28;20044;-80
2022/04/08 09:19:34;;;;;;;1.52;1.20;;;;;;;12.48;68.05;99947.22;5038748;28;20048;-79
2022/04/08 09:22:00;;;;;;;2.10;1.10;;;;;;;12.74;61.81;99954.44;5038811;28;20036;-80
2022/04/08 09:24:29;;;;;;;2.63;1.65;;;;;;;12.81;56.92;99957.97;5037861;28;20036;-80
2022/04/08 09:26:55;;;;;;;2.75;1.40;;;;;;;12.66;58.29;99965.47;5069164;28;20250;-77
2022/04/08 09:29:22;;;;;;;2.10;1.63;;;;;;;14.17;53.42;99954.28;5066972;28;20120;-79
2022/04/08 09:31:51;;;;;;;3.45;1.67;;;;;;;15.18;50.57;99963.19;5052344;28;20134;-78
2022/04/08 09:34:19;;;;;;;3.22;1.40;;;;;;;14.59;53.20;99978.97;5044816;28;20043;-80
2022/04/08 09:36:45;;;;;;;1.77;1.55;;;;;;;16.41;44.53;99977.41;5054426;28;20048;-79
2022/04/08 09:39:11;;;;;;;2.22;1.67;;;;;;;18.48;39.17;99974.94;5053946;28;20025;-80
2022/04/08 09:41:42;;;;;;;3.83;1.63;;;;;;;18.84;40.54;99979.09;5053520;28;20033;-79
2022/04/08 09:44:09;;;;;;;3.67;1.65;;;;;;;18.46;39.43;99958.03;5072197;28;20024;-79
2022/04/08 09:46:36;;;;;;;3.10;1.55;;;;;;;18.05;38.74;99991.88;5054717;28;20063;-79
2022/04/08 09:49:04;;;;;;;4.00;1.85;;;;;;;18.63;38.45;99982.56;5054365;28;20024;-79
2022/04/08 09:51:36;;;;;;;1.30;1.20;;;;;;;20.43;38.66;99981.81;5045807;28;20127;-79
2022/04/08 09:54:02;;;;;;;4.00;1.40;;;;;;;19.58;34.43;99991.53;5072093;28;20066;-79
2022/04/08 09:56:28;;;;;;;3.90;1.30;;;;;;;15.30;42.29;99999.31;5055169;28;20090;-79
2022/04/08 09:59:03;;;;;;;1.92;1.35;;;;;;;12.10;50.22;99988.25;5037890;28;20043;-79
2022/04/08 10:01:29;;;;;;;3.83;1.73;;;;;;;10.52;60.52;100004.16;5072101;28;20048;-79
2022/04/08 10:03:58;;;;;;;5.00;1.40;;;;;;;12.00;55.86;99996.72;5069685;28;20025;-80
2022/04/08 10:06:24;;;;;;;2.92;1.60;;;;;;;15.51;46.59;99998.03;5054240;28;20059;-79
2022/04/08 10:08:50;;;;;;;3.97;1.63;;;;;;;17.36;41.89;100006.25;5021453;28;20052;-80
2022/04/08 10:11:29;;;;;;;2.80;1.50;;;;;;;16.61;40.03;100002.31;5038042;28;20071;-80
2022/04/08 10:14:35;;;;;;;4.57;1.23;;;;;;;14.86;45.10;100009.31;5071317;28;20398;-79
2022/04/08 10:17:02;;;;;;;3.80;1.80;;;;;;;16.68;39.69;100004.94;5072219;28;20029;-80
2022/04/08 10:19:29;;;;;;;4.30;2.10;;;;;;;18.22;36.26;100012.59;5038097;28;20040;-79
2022/04/08 10:21:58;;;;;;;3.33;1.20;;;;;;;15.79;42.23;100019.16;5059752;28;20036;-80
2022/04/08 10:24:29;;;;;;;1.67;1.45;;;;;;;17.20;41.24;100013.25;5070756;28;20432;-79
2022/04/08 10:27:01;;;;;;;1.30;1.10;;;;;;;16.91;38.02;100020.47;5070065;28;20086;-80
2022/04/08 10:29:27;;;;;;;3.55;1.20;;;;;;;14.48;41.33;100015.63;5064024;28;20040;-79
2022/04/08 10:31:57;;;;;;;2.60;1.30;;;;;;;12.44;45.51;100022.31;5053952;28;20066;-79
2022/04/08 10:34:23;;;;;;;2.97;1.20;;;;;;;10.86;50.49;100037.53;5065311;28;20112;-79
2022/04/08 10:36:49;;;;;;;1.75;1.17;;;;;;;9.75;54.77;100049.63;5068971;28;20049;-79
2022/04/08 10:39:20;;;;;;;6.40;1.45;;;;;;;8.97;59.50;100043.78;5046513;28;20059;-78
2022/04/08 10:41:54;;;;;;;4.30;2.40;;;;;;;13.73;48.10;100049.75;5053167;28;20033;-79
2022/04/08 10:44:33;;;;;;;3.10;1.60;;;;;;;14.14;41.04;100040.41;5065766;28;20029;-79
2022/04/08 10:47:09;;;;;;;2.85;1.55;;;;;;;11.44;46.31;100051.56;5063633;28;20032;-79
2022/04/08 10:49:52;;;;;;;6.30;1.88;;;;;;;11.06;49.15;100058.34;5068676;28;20087;-79
2022/04/08 10:52:22;;;;;;;3.35;1.40;;;;;;;13.08;42.35;100066.69;5064234;28;20482;-80
2022/04/08 10:54:48;;;;;;;5.47;1.42;;;;;;;11.36;47.46;100067.88;5053240;28;20119;-79
2022/04/08 10:57:14;;;;;;;1.95;1.30;;;;;;;10.27;50.88;100076.31;5062763;28;20048;-79
2022/04/08 10:59:40;;;;;;;2.25;1.63;;;;;;;13.77;43.76;100061.81;5057650;28;20131;-78
2022/04/08 11:02:06;;;;;;;5.72;1.85;;;;;;;17.41;36.13;100055.28;5089539;28;20020;-80
2022/04/08 11:04:32;;;;;;;2.97;1.70;;;;;;;17.34;31.06;100051.84;5061314;28;20135;-80
2022/04/08 11:07:27;;;;;;;3.08;1.50;;;;;;;14.01;38.39;100036.72;5066928;28;20025;-78
2022/04/08 11:09:56;;;;;;;4.63;1.48;;;;;;;13.45;44.31;100063.56;5054900;28;20055;-78
2022/04/08 11:12:25;;;;;;;2.72;1.40;;;;;;;17.18;36.95;100063.44;5073144;28;20032;-79
2022/04/08 11:14:57;;;;;;;5.38;2.08;;;;;;;18.95;32.93;100064.53;5059784;28;20389;-80
2022/04/08 11:17:29;;;;;;;2.38;1.42;;;;;;;19.71;31.95;100078.47;5059119;28;20032;-81
2022/04/08 11:19:55;;;;;;;3.78;1.50;;;;;;;21.03;31.60;100071.94;5051817;28;20044;-79
2022/04/08 11:22:20;;;;;;;3.80;1.30;;;;;;;19.59;31.61;100071.44;5053353;28;20040;-79
2022/04/08 11:24:46;;;;;;;4.72;1.58;;;;;;;16.97;35.37;100084.69;5063092;28;20489;-78
2022/04/08 11:27:11;;;;;;;2.65;1.77;;;;;;;18.96;31.46;100068.06;5068808;28;20024;-81
2022/04/08 11:29:37;;;;;;;1.92;1.40;;;;;;;19.94;31.46;100065.66;5059338;28;20084;-79
2022/04/08 11:32:11;;;;;;;2.58;1.90;;;;;;;20.31;28.12;100048.59;5053523;28;20025;-79
2022/04/08 11:34:37;;;;;;;2.05;1.50;;;;;;;20.97;26.32;100082.00;5060096;28;20079;-79
2022/04/08 11:37:03;;;;;;;2.00;1.58;;;;;;;20.90;26.43;100084.13;5063800;28;20032;-79
2022/04/08 11:39:32;;;;;;;3.53;1.30;;;;;;;20.69;26.47;100074.09;5063713;28;20032;-79
2022/04/08 11:41:59;;;;;;;5.78;1.35;;;;;;;16.22;32.71;100091.41;5051575;28;20032;-78
2022/04/08 11:44:26;;;;;;;2.33;1.92;;;;;;;18.32;30.99;100088.16;5069350;28;20136;-78
2022/04/08 11:46:52;;;;;;;4.18;1.88;;;;;;;19.85;29.71;100084.38;5064026;28;20071;-79
2022/04/08 11:49:19;;;;;;;2.50;1.83;;;;;;;20.79;26.65;100090.59;5052001;28;20109;-79
2022/04/08 11:51:45;;;;;;;3.03;1.13;;;;;;;17.83;31.00;100097.78;5048330;28;20359;-79